KFRI/FRI METAR and TAF weather

Enter ICAO airport designator
Station Type Date Time Source
KFRI METAR 2021/10/24 21:56 UTC NOAA

KFRI 242156Z AUTO 32009KT 10SM CLR 15/09 A2974 RMK AO2 SLP064 T01530085


Station Type Date Time Source
KFRI Decoded METAR 2021/10/24 21:56 UTC NOAA

Fort Riley, Marshall AAF Ft Riley, KS, United States (KFRI) 39-03-20N 096-45-51W
Oct 24, 2021 - 05:56 PM EDT / 2021.10.24 2156 UTC
Wind: from the NW (320 degrees) at 10 MPH (9 KT):0
Visibility: 10 mile(s):0
Sky conditions: clear
Temperature: 59.5 F (15.3 C)
Dew Point: 47.3 F (8.5 C)
Relative Humidity: 63%
Pressure (altimeter): 29.74 in. Hg (1007 hPa)
ob: KFRI 242156Z AUTO 32009KT 10SM CLR 15/09 A2974 RMK AO2 SLP064 T01530085
cycle: 22

Station Type Date Time Source
KFRI TAF 2021/10/22 21:18 UTC NOAA

TAF KFRI 222100Z 2221/2403 24009KT 9999 SKC QNH2985INS
BECMG 2312/2313 09006KT 8000 BR SCT013 QNH2974INS
BECMG 2321/2322 09010G15KT 8000 BR BKN005 510052 QNH2966INS TX26/2221Z TN12/2311Z LAST NO
AMDS AFT 2221 NEXT 2505

Example: see airport list